Star — ESCJ — position and weather

sailwx.info

Track history (hours):
 
Tides and Currents Weather Stations Pressure Air Temp Water Temp Dewpoint Dewpoint Depression Visibility Wind Speed Wind Dir Waves Ship Positions

Star

Last reported at 2017-Nov-18 02:29 UTC. Time now 2017-Nov-18 02:56 UTC.
Position N 60°09' E 024°55'.

Length 186 m; draft 6 m.

Type: Passenger vessel. MMSI: 276672000.

Date/timePositionNaut miles runAvg speedWind from/ knotsBaromVisibWave heightAir tempDewpointWater temp
2017-Nov-18 02:29N 60°09' E 024°55'0 0.0
2017-Nov-18 01:59N 60°09' E 024°55'0 0.0
2017-Nov-18 01:29N 60°09' E 024°55'0 0.0
2017-Nov-18 00:59N 60°09' E 024°55'0 0.0
2017-Nov-18 00:29N 60°09' E 024°55'0 0.0
2017-Nov-17 23:59N 60°09' E 024°55'0 0.0
2017-Nov-17 23:29N 60°09' E 024°55'0 0.0
2017-Nov-17 22:59N 60°09' E 024°55'0 0.0
2017-Nov-17 22:30N 60°09' E 024°55'714.2
2017-Nov-17 22:01N 60°02' E 024°54'1223.9
2017-Nov-17 21:31N 59°50' E 024°48'1122.6
2017-Nov-17 21:01N 59°40' E 024°38'1122.7
2017-Nov-17 20:31N 59°29' E 024°46'3 5.6
2017-Nov-17 20:00N 59°27' E 024°46'0 0.0
2017-Nov-17 19:30N 59°27' E 024°46'918.8
2017-Nov-17 19:01N 59°36' E 024°40'1122.8
2017-Nov-17 18:31N 59°47' E 024°45'1223.5
2017-Nov-17 18:00N 59°58' E 024°53'1121.2
2017-Nov-17 17:30N 60°08' E 024°54'1 1.5
2017-Nov-17 17:00N 60°09' E 024°55'0 0.0
2017-Nov-17 16:30N 60°09' E 024°55'816.4
2017-Nov-17 16:00N 60°01' E 024°54'1123.0
2017-Nov-17 15:31N 59°50' E 024°47'1122.3
2017-Nov-17 15:01N 59°39' E 024°39'1122.7
2017-Nov-17 14:31N 59°29' E 024°46'2 3.7
2017-Nov-17 13:58N 59°27' E 024°46'0 0.0
2017-Nov-17 13:31N 59°27' E 024°46'815.6
2017-Nov-17 13:01N 59°34' E 024°41'1122.5
2017-Nov-17 12:31N 59°45' E 024°44'1223.0
2017-Nov-17 12:01N 59°56' E 024°53'1122.2
2017-Nov-17 11:30N 60°07' E 024°54'2 3.7
2017-Nov-17 10:59N 60°09' E 024°55'0 0.0
2017-Nov-17 10:30N 60°09' E 024°55'713.4
2017-Nov-17 10:01N 60°02' E 024°54'1122.5
2017-Nov-17 09:31N 59°51' E 024°50'1223.2
2017-Nov-17 09:01N 59°40' E 024°44'1121.7
2017-Nov-17 08:31N 59°29' E 024°46'3 4.6
2017-Nov-17 07:58N 59°27' E 024°46'0 0.0
2017-Nov-17 07:30N 59°27' E 024°46'815.5
2017-Nov-17 07:00N 59°34' E 024°42'1121.9
2017-Nov-17 06:30N 59°45' E 024°47'1223.1
2017-Nov-17 06:01N 59°56' E 024°53'1122.0
2017-Nov-17 05:30N 60°07' E 024°54'2 4.1
2017-Nov-17 05:00N 60°09' E 024°55'0 0.0
2017-Nov-17 04:30N 60°09' E 024°55'0 0.0
2017-Nov-17 04:00N 60°09' E 024°55'0 0.0
2017-Nov-17 03:30N 60°09' E 024°55'0 0.0
2017-Nov-17 03:00N 60°09' E 024°55'0 0.0
2017-Nov-17 02:30N 60°09' E 024°55'0 0.0
2017-Nov-17 02:00N 60°09' E 024°55'0 0.0
2017-Nov-17 01:30N 60°09' E 024°55'0 0.0
2017-Nov-17 00:57N 60°09' E 024°55'0 0.0
2017-Nov-17 00:30N 60°09' E 024°55'0 0.0
2017-Nov-17 00:00N 60°09' E 024°55'0 0.0
2017-Nov-16 23:30N 60°09' E 024°55'0 0.0
2017-Nov-16 23:00N 60°09' E 024°55'0 0.0
2017-Nov-16 22:30N 60°09' E 024°55'613.0
2017-Nov-16 22:00N 60°02' E 024°54'1223.3
2017-Nov-16 21:31N 59°51' E 024°51'1223.4
2017-Nov-16 21:01N 59°40' E 024°44'1121.8
2017-Nov-16 20:30N 59°29' E 024°46'2 4.1
2017-Nov-16 19:58N 59°27' E 024°46'0 0.0
2017-Nov-16 19:31N 59°27' E 024°46'714.9
2017-Nov-16 19:01N 59°34' E 024°42'1121.8
2017-Nov-16 18:31N 59°44' E 024°47'1122.9
2017-Nov-16 18:00N 59°55' E 024°52'1122.0
2017-Nov-16 17:30N 60°06' E 024°54'2 5.0
2017-Nov-16 17:00N 60°09' E 024°55'0 0.0
2017-Nov-16 16:30N 60°09' E 024°55'713.5
2017-Nov-16 16:00N 60°02' E 024°54'1123.0
2017-Nov-16 15:31N 59°51' E 024°50'1223.2
2017-Nov-16 15:01N 59°40' E 024°44'1121.4
2017-Nov-16 14:31N 59°29' E 024°46'2 4.8
2017-Nov-16 14:00N 59°27' E 024°46'0 0.0
2017-Nov-16 13:30N 59°27' E 024°46'713.5
2017-Nov-16 13:01N 59°33' E 024°42'1223.2
2017-Nov-16 12:31N 59°45' E 024°43'1223.5
2017-Nov-16 12:01N 59°55' E 024°52'1121.9
2017-Nov-16 11:30N 60°06' E 024°54'3 4.9
2017-Nov-16 10:59N 60°09' E 024°55'0 0.0
2017-Nov-16 10:30N 60°09' E 024°55'714.4
2017-Nov-16 10:01N 60°02' E 024°54'1223.2
2017-Nov-16 09:31N 59°51' E 024°48'1223.3
2017-Nov-16 09:00N 59°39' E 024°41'1122.5
2017-Nov-16 08:30N 59°28' E 024°46'2 3.5
2017-Nov-16 08:00N 59°27' E 024°46'0 0.0
2017-Nov-16 07:30N 59°27' E 024°46'713.9
2017-Nov-16 07:01N 59°33' E 024°42'1122.7
2017-Nov-16 06:30N 59°45' E 024°43'1223.2
2017-Nov-16 06:01N 59°55' E 024°52'1122.2
2017-Nov-16 05:31N 60°06' E 024°54'3 4.9
2017-Nov-16 04:59N 60°09' E 024°55'0 0.0
2017-Nov-16 04:29N 60°09' E 024°55'0 0.0
2017-Nov-16 03:59N 60°09' E 024°55'0 0.0
2017-Nov-16 03:29N 60°09' E 024°55'0 0.0
2017-Nov-16 02:56N 60°09' E 024°55'0 0.0
2017-Nov-16 02:29N 60°09' E 024°55'0 0.0
2017-Nov-16 01:56N 60°09' E 024°55'0 0.0
2017-Nov-16 01:29N 60°09' E 024°55'0 0.0
2017-Nov-16 00:59N 60°09' E 024°55'0 0.0
2017-Nov-16 00:29N 60°09' E 024°55'0 0.0
2017-Nov-15 23:59N 60°09' E 024°55'0 0.0
2017-Nov-15 23:29N 60°09' E 024°55'0 0.0
2017-Nov-15 22:59N 60°09' E 024°55'0 0.0
2017-Nov-15 22:30N 60°09' E 024°55'714.2
2017-Nov-15 22:00N 60°02' E 024°54'1223.3
2017-Nov-15 21:31N 59°50' E 024°50'1223.5
2017-Nov-15 21:00N 59°39' E 024°43'1121.8
2017-Nov-15 20:30N 59°28' E 024°46'2 3.3
2017-Nov-15 19:59N 59°27' E 024°46'0 0.0
2017-Nov-15 19:31N 59°27' E 024°46'815.9
2017-Nov-15 19:00N 59°34' E 024°41'1122.2
2017-Nov-15 18:30N 59°45' E 024°44'1122.6
2017-Nov-15 18:00N 59°56' E 024°52'1121.2
2017-Nov-15 17:30N 60°06' E 024°54'3 4.8
2017-Nov-15 16:58N 60°09' E 024°55'0 0.0
2017-Nov-15 16:30N 60°09' E 024°55'713.8
2017-Nov-15 16:00N 60°02' E 024°54'1223.3
2017-Nov-15 15:31N 59°51' E 024°51'1223.3
2017-Nov-15 15:01N 59°39' E 024°44'1122.1
2017-Nov-15 14:30N 59°29' E 024°46'2 3.7
2017-Nov-15 14:01N 59°27' E 024°46'0 0.0
2017-Nov-15 13:31N 59°27' E 024°46'713.8
2017-Nov-15 13:01N 59°33' E 024°42'1122.6
2017-Nov-15 12:31N 59°45' E 024°43'1223.2
2017-Nov-15 12:01N 59°55' E 024°52'1122.3
2017-Nov-15 11:30N 60°06' E 024°54'3 4.3
2017-Nov-15 10:55N 60°09' E 024°55'0 0.0
2017-Nov-15 10:30N 60°09' E 024°55'713.7
2017-Nov-15 10:01N 60°02' E 024°54'1223.2
2017-Nov-15 09:31N 59°51' E 024°51'1223.4
2017-Nov-15 09:01N 59°39' E 024°43'1122.0
2017-Nov-15 08:30N 59°29' E 024°46'2 3.7
2017-Nov-15 08:01N 59°27' E 024°46'0 0.0
2017-Nov-15 07:30N 59°27' E 024°46'713.8
2017-Nov-15 07:01N 59°33' E 024°42'1122.9
2017-Nov-15 06:30N 59°45' E 024°43'1223.3
2017-Nov-15 06:01N 59°55' E 024°52'1122.0
2017-Nov-15 05:30N 60°06' E 024°54'3 5.0
2017-Nov-15 05:00N 60°09' E 024°55'0 0.0
2017-Nov-15 04:30N 60°09' E 024°55'0 0.0
2017-Nov-15 04:00N 60°09' E 024°55'0 0.0
2017-Nov-15 03:30N 60°09' E 024°55'0 0.0
2017-Nov-15 03:00N 60°09' E 024°55'0 0.0
2017-Nov-15 02:30N 60°09' E 024°55'0 0.0
2017-Nov-15 02:00N 60°09' E 024°55'0 0.0
2017-Nov-15 01:30N 60°09' E 024°55'0 0.0
2017-Nov-15 01:00N 60°09' E 024°55'0 0.0
2017-Nov-15 00:30N 60°09' E 024°55'0 0.0
2017-Nov-15 00:00N 60°09' E 024°55'0 0.0
2017-Nov-14 23:30N 60°09' E 024°55'612.5
2017-Nov-14 23:00N 60°03' E 024°54'1123.0
2017-Nov-14 22:31N 59°51' E 024°51'1223.2
2017-Nov-14 22:00N 59°40' E 024°44'1121.8
2017-Nov-14 21:31N 59°29' E 024°46'3 5.3
2017-Nov-14 21:00N 59°27' E 024°46'0 0.0
2017-Nov-14 20:30N 59°27' E 024°46'0 0.0
2017-Nov-14 20:00N 59°27' E 024°46'0 0.0
2017-Nov-14 19:31N 59°27' E 024°46'713.7
2017-Nov-14 19:01N 59°33' E 024°42'1122.5
2017-Nov-14 18:31N 59°44' E 024°43'1223.1
2017-Nov-14 18:01N 59°55' E 024°52'1122.1
2017-Nov-14 17:30N 60°06' E 024°54'13 6.9
2017-Nov-14 15:38N 59°53' E 024°55'323.5
2017-Nov-14 15:31N 59°50' E 024°53'1223.5
2017-Nov-14 15:00N 59°39' E 024°44'1122.0
2017-Nov-14 14:30N 59°29' E 024°46'2 3.8
2017-Nov-14 14:00N 59°27' E 024°46'0 0.0
2017-Nov-14 13:31N 59°27' E 024°46'612.9
2017-Nov-14 13:01N 59°33' E 024°42'1122.9
2017-Nov-14 12:30N 59°44' E 024°43'9 3.1
2017-Nov-14 09:35N 59°52' E 024°51'224.3
2017-Nov-14 09:31N 59°51' E 024°51'1223.9
2017-Nov-14 09:01N 59°39' E 024°44'1122.3
2017-Nov-14 08:31N 59°28' E 024°47'2 3.3
2017-Nov-14 07:59N 59°27' E 024°46'0 0.0
2017-Nov-14 07:30N 59°27' E 024°46'714.0
2017-Nov-14 07:01N 59°33' E 024°42'1122.9
2017-Nov-14 06:31N 59°45' E 024°43'5 0.6
2017-Nov-13 21:33N 59°49' E 024°48'20 1.0
2017-Nov-13 01:59N 60°09' E 024°55'0 0.0
2017-Nov-13 01:29N 60°09' E 024°55'0 0.0
2017-Nov-13 00:59N 60°09' E 024°55'0 0.0
2017-Nov-13 00:29N 60°09' E 024°55'0 0.0
2017-Nov-12 23:59N 60°09' E 024°55'0 0.0
2017-Nov-12 23:29N 60°09' E 024°55'0 0.0
2017-Nov-12 22:59N 60°09' E 024°55'0 0.0
2017-Nov-12 22:26N 60°09' E 024°55'614.1
2017-Nov-12 22:01N 60°03' E 024°54'1530.9
2017-Nov-12 21:31N 59°47' E 024°50'1020.2
2017-Nov-12 21:01N 59°38' E 024°42'1122.2
2017-Nov-12 20:31N 59°27' E 024°47'1 1.3
2017-Nov-12 19:58N 59°27' E 024°46'0 0.0
2017-Nov-12 19:28N 59°27' E 024°46'716.0
2017-Nov-12 19:01N 59°34' E 024°42'1121.7
2017-Nov-12 18:30N 59°44' E 024°46'1223.0
2017-Nov-12 18:00N 59°55' E 024°52'1122.1
2017-Nov-12 17:30N 60°06' E 024°54'3 4.8
2017-Nov-12 16:58N 60°09' E 024°55'0 0.0
2017-Nov-12 16:31N 60°09' E 024°55'713.2
2017-Nov-12 16:00N 60°02' E 024°54'1223.3
2017-Nov-12 15:30N 59°51' E 024°51'1223.6
2017-Nov-12 15:01N 59°40' E 024°44'1122.1
2017-Nov-12 14:30N 59°29' E 024°46'2 3.8
2017-Nov-12 14:01N 59°27' E 024°46'0 0.0
2017-Nov-12 13:31N 59°27' E 024°46'815.5
2017-Nov-12 13:01N 59°34' E 024°41'1121.7
2017-Nov-12 12:31N 59°45' E 024°47'1223.1
2017-Nov-12 12:01N 59°56' E 024°52'1121.8
2017-Nov-12 11:31N 60°07' E 024°54'2 4.4
2017-Nov-12 10:59N 60°09' E 024°55'0 0.0
2017-Nov-12 10:29N 60°09' E 024°55'714.1
2017-Nov-12 10:01N 60°02' E 024°54'1223.1
2017-Nov-12 09:30N 59°51' E 024°48'1223.9
2017-Nov-12 09:01N 59°40' E 024°41'1325.3
2017-Nov-12 08:30N 59°27' E 024°46'0 0.4
2017-Nov-12 07:58N 59°27' E 024°46'0 0.0
2017-Nov-12 07:28N 59°27' E 024°46'716.1
2017-Nov-12 07:01N 59°34' E 024°42'1122.4
2017-Nov-12 06:30N 59°45' E 024°44'1223.2
2017-Nov-12 06:00N 59°56' E 024°52'1121.5
2017-Nov-12 05:30N 60°06' E 024°54'3 5.2
2017-Nov-12 05:00N 60°09' E 024°55'0 0.0
2017-Nov-12 04:30N 60°09' E 024°55'0 0.0
2017-Nov-12 04:00N 60°09' E 024°55'0 0.0
2017-Nov-12 03:30N 60°09' E 024°55'0 0.0
2017-Nov-12 03:00N 60°09' E 024°55'0 0.0
2017-Nov-12 02:30N 60°09' E 024°55'0 0.0
2017-Nov-12 02:00N 60°09' E 024°55'0 0.0
2017-Nov-12 01:30N 60°09' E 024°55'0 0.0
2017-Nov-12 01:00N 60°09' E 024°55'0 0.0
2017-Nov-12 00:30N 60°09' E 024°55'0 0.0
2017-Nov-12 00:00N 60°09' E 024°55'0 0.0
2017-Nov-11 23:30N 60°09' E 024°55'0 0.0
2017-Nov-11 23:00N 60°09' E 024°55'0 0.1
2017-Nov-11 22:29N 60°09' E 024°55'713.8
2017-Nov-11 22:00N 60°02' E 024°54'1223.4
2017-Nov-11 21:31N 59°51' E 024°51'1223.6
2017-Nov-11 21:01N 59°39' E 024°44'1122.1
2017-Nov-11 20:30N 59°28' E 024°46'2 3.6
2017-Nov-11 20:00N 59°27' E 024°46'0 0.0
2017-Nov-11 19:30N 59°27' E 024°46'816.5
2017-Nov-11 19:01N 59°34' E 024°41'1122.1
2017-Nov-11 18:30N 59°45' E 024°47'1122.6
2017-Nov-11 18:00N 59°56' E 024°52'1021.0
2017-Nov-11 17:30N 60°07' E 024°54'2 4.6
2017-Nov-11 16:59N 60°09' E 024°55'0 0.0
2017-Nov-11 16:30N 60°09' E 024°55'612.5
2017-Nov-11 16:01N 60°03' E 024°54'1223.4
2017-Nov-11 15:30N 59°51' E 024°51'1223.4
2017-Nov-11 15:01N 59°40' E 024°44'1122.3
2017-Nov-11 14:31N 59°29' E 024°46'2 4.3
2017-Nov-11 14:00N 59°27' E 024°46'0 0.0
2017-Nov-11 13:31N 59°27' E 024°46'815.3
2017-Nov-11 13:01N 59°34' E 024°42'1121.9
2017-Nov-11 12:31N 59°45' E 024°43'1222.5
2017-Nov-11 12:00N 59°56' E 024°52'1021.6
2017-Nov-11 11:30N 60°06' E 024°54'3 5.3
2017-Nov-11 10:58N 60°09' E 024°55'0 0.1
2017-Nov-11 10:29N 60°09' E 024°55'714.5
2017-Nov-11 10:01N 60°02' E 024°54'1122.7
2017-Nov-11 09:31N 59°51' E 024°49'1122.7
2017-Nov-11 09:01N 59°40' E 024°44'1121.3
2017-Nov-11 08:31N 59°29' E 024°46'3 5.2
2017-Nov-11 07:59N 59°27' E 024°46'0 0.0
2017-Nov-11 07:29N 59°27' E 024°46'816.9
2017-Nov-11 07:01N 59°34' E 024°41'1121.9
2017-Nov-11 06:31N 59°45' E 024°47'1122.8
2017-Nov-11 06:01N 59°56' E 024°52'1121.3
2017-Nov-11 05:30N 60°06' E 024°54'2 4.8
2017-Nov-11 05:00N 60°09' E 024°55'0 0.0
2017-Nov-11 04:30N 60°09' E 024°55'0 0.0
2017-Nov-11 04:00N 60°09' E 024°55'0 0.0
2017-Nov-11 03:30N 60°09' E 024°55'0 0.0
2017-Nov-11 03:00N 60°09' E 024°55'0 0.0
2017-Nov-11 02:30N 60°09' E 024°55'0 0.0
2017-Nov-11 02:00N 60°09' E 024°55'0 0.0
2017-Nov-11 01:30N 60°09' E 024°55'0 0.0
2017-Nov-11 01:00N 60°09' E 024°55'0 0.0
2017-Nov-11 00:30N 60°09' E 024°55'0 0.0
2017-Nov-11 00:00N 60°09' E 024°55'0 0.0
2017-Nov-10 23:30N 60°09' E 024°55'0 0.0
2017-Nov-10 23:00N 60°09' E 024°55'0 0.1
2017-Nov-10 22:27N 60°09' E 024°55'716.2
2017-Nov-10 22:00N 60°02' E 024°54'1122.9
2017-Nov-10 21:30N 59°50' E 024°51'1223.5
2017-Nov-10 21:01N 59°39' E 024°44'1121.2
2017-Nov-10 20:31N 59°29' E 024°46'2 4.2
2017-Nov-10 20:00N 59°27' E 024°46'0 0.0
2017-Nov-10 19:30N 59°27' E 024°46'917.2
2017-Nov-10 19:01N 59°35' E 024°41'1121.3
2017-Nov-10 18:30N 59°45' E 024°47'1122.5
2017-Nov-10 18:00N 59°56' E 024°52'1121.6
2017-Nov-10 17:31N 60°07' E 024°54'2 4.6
2017-Nov-10 17:00N 60°09' E 024°55'0 0.0
2017-Nov-10 16:30N 60°09' E 024°55'713.5
2017-Nov-10 16:00N 60°02' E 024°54'1122.9
2017-Nov-10 15:31N 59°51' E 024°51'1223.0
2017-Nov-10 15:00N 59°40' E 024°44'1121.6
2017-Nov-10 14:31N 59°29' E 024°46'3 5.0
2017-Nov-10 14:00N 59°27' E 024°46'0 0.0
2017-Nov-10 13:30N 59°27' E 024°46'815.5
2017-Nov-10 13:01N 59°34' E 024°42'1121.4
2017-Nov-10 12:30N 59°44' E 024°48'1122.6
2017-Nov-10 12:00N 59°55' E 024°53'1122.0
2017-Nov-10 11:30N 60°06' E 024°54'3 4.7
2017-Nov-10 10:56N 60°09' E 024°55'0 0.0
2017-Nov-10 10:29N 60°09' E 024°55'714.0
2017-Nov-10 10:01N 60°02' E 024°54'1122.6
2017-Nov-10 09:31N 59°51' E 024°50'1122.6
2017-Nov-10 09:01N 59°40' E 024°44'1121.3
2017-Nov-10 08:31N 59°30' E 024°46'3 5.3
2017-Nov-10 07:58N 59°27' E 024°46'0 0.0
2017-Nov-10 07:30N 59°27' E 024°46'815.7
2017-Nov-10 07:01N 59°34' E 024°41'1121.1
2017-Nov-10 06:31N 59°44' E 024°47'1122.0
2017-Nov-10 06:00N 59°55' E 024°52'1121.9
2017-Nov-10 05:31N 60°06' E 024°54'3 5.9
2017-Nov-10 04:59N 60°09' E 024°55'0 0.0
2017-Nov-10 04:29N 60°09' E 024°55'0 0.0
2017-Nov-10 03:59N 60°09' E 024°55'0 0.0
2017-Nov-10 03:29N 60°09' E 024°55'0 0.0
2017-Nov-10 02:56N 60°09' E 024°55'0 0.0
2017-Nov-10 02:29N 60°09' E 024°55'0 0.0
2017-Nov-10 01:59N 60°09' E 024°55'0 0.0
2017-Nov-10 01:29N 60°09' E 024°55'0 0.0
2017-Nov-10 00:59N 60°09' E 024°55'0 0.0
2017-Nov-10 00:29N 60°09' E 024°55'0 0.0
2017-Nov-09 23:59N 60°09' E 024°55'0 0.0
2017-Nov-09 23:29N 60°09' E 024°55'0 0.0
2017-Nov-09 22:59N 60°09' E 024°55'0 0.0
2017-Nov-09 22:29N 60°09' E 024°55'714.1
2017-Nov-09 22:01N 60°02' E 024°54'1122.3
2017-Nov-09 21:30N 59°51' E 024°51'1122.5
2017-Nov-09 21:00N 59°40' E 024°45'1122.6
2017-Nov-09 20:31N 59°29' E 024°46'2 4.7
2017-Nov-09 20:00N 59°27' E 024°46'0 0.0
2017-Nov-09 19:31N 59°27' E 024°46'815.2
2017-Nov-09 19:00N 59°34' E 024°42'1121.9
2017-Nov-09 18:30N 59°45' E 024°47'1122.7
2017-Nov-09 18:00N 59°56' E 024°52'1122.2
2017-Nov-09 17:31N 60°07' E 024°54'2 4.3
2017-Nov-09 16:58N 60°09' E 024°55'0 0.0
2017-Nov-09 16:31N 60°09' E 024°55'713.4
2017-Nov-09 16:00N 60°02' E 024°54'1122.5
2017-Nov-09 15:30N 59°51' E 024°51'1122.6
2017-Nov-09 15:01N 59°40' E 024°44'1121.5
2017-Nov-09 14:31N 59°30' E 024°46'3 5.7
2017-Nov-09 14:01N 59°27' E 024°46'0 0.0
2017-Nov-09 13:30N 59°27' E 024°46'815.5
2017-Nov-09 13:01N 59°34' E 024°41'1121.3
2017-Nov-09 12:31N 59°44' E 024°48'1122.6
2017-Nov-09 12:00N 59°55' E 024°53'1121.8
2017-Nov-09 11:31N 60°06' E 024°54'3 5.6
2017-Nov-09 11:00N 60°09' E 024°55'0 0.0
2017-Nov-09 10:30N 60°09' E 024°55'714.4
2017-Nov-09 10:00N 60°02' E 024°54'1122.9
2017-Nov-09 09:30N 59°51' E 024°51'1122.9
2017-Nov-09 09:00N 59°40' E 024°44'1121.8
2017-Nov-09 08:30N 59°29' E 024°46'2 4.1
2017-Nov-09 07:58N 59°27' E 024°46'0 0.0
2017-Nov-09 07:28N 59°27' E 024°46'816.5
2017-Nov-09 07:01N 59°34' E 024°42'1121.4
2017-Nov-09 06:31N 59°44' E 024°47'1122.6
2017-Nov-09 06:01N 59°55' E 024°52'1121.6
2017-Nov-09 05:31N 60°06' E 024°54'3 5.0
2017-Nov-09 04:57N 60°09' E 024°55'0 0.0
2017-Nov-09 04:30N 60°09' E 024°55'0 0.0
2017-Nov-09 04:00N 60°09' E 024°55'0 0.0
2017-Nov-09 03:30N 60°09' E 024°55'0 0.0
2017-Nov-09 03:00N 60°09' E 024°55'0 0.0
2017-Nov-09 02:30N 60°09' E 024°55'0 0.0
2017-Nov-09 02:00N 60°09' E 024°55'0 0.0
2017-Nov-09 01:30N 60°09' E 024°55'0 0.0
2017-Nov-09 01:00N 60°09' E 024°55'0 0.0
2017-Nov-09 00:30N 60°09' E 024°55'0 0.0
2017-Nov-08 23:59N 60°09' E 024°55'0 0.0
2017-Nov-08 23:29N 60°09' E 024°55'0 0.0
2017-Nov-08 23:00N 60°09' E 024°55'0 0.0
2017-Nov-08 22:30N 60°09' E 024°55'816.5
2017-Nov-08 22:00N 60°01' E 024°54'1224.0
2017-Nov-08 21:30N 59°49' E 024°50'1325.8
2017-Nov-08 21:00N 59°37' E 024°41'1020.5
2017-Nov-08 20:31N 59°27' E 024°47'0 0.5
2017-Nov-08 19:58N 59°27' E 024°46'0 0.0
2017-Nov-08 19:28N 59°27' E 024°46'816.5
2017-Nov-08 19:01N 59°34' E 024°42'1121.3
2017-Nov-08 18:31N 59°44' E 024°47'1122.6
2017-Nov-08 18:01N 59°55' E 024°52'1122.0
2017-Nov-08 17:31N 60°06' E 024°54'3 5.5
2017-Nov-08 17:00N 60°09' E 024°55'0 0.0
2017-Nov-08 16:30N 60°09' E 024°55'714.4
2017-Nov-08 16:00N 60°02' E 024°54'1122.6
2017-Nov-08 15:30N 59°51' E 024°50'1122.6
2017-Nov-08 15:00N 59°40' E 024°44'1121.4
2017-Nov-08 14:30N 59°29' E 024°46'2 4.9
2017-Nov-08 14:00N 59°27' E 024°46'0 0.0
2017-Nov-08 13:30N 59°27' E 024°46'714.0
2017-Nov-08 13:00N 59°33' E 024°42'1121.4
2017-Nov-08 12:30N 59°44' E 024°47'1122.8
2017-Nov-08 12:00N 59°55' E 024°52'1122.2
2017-Nov-08 11:31N 60°06' E 024°54'3 6.0
2017-Nov-08 11:00N 60°09' E 024°55'0 0.0
2017-Nov-08 10:29N 60°09' E 024°55'714.4
2017-Nov-08 10:00N 60°02' E 024°54'1122.6
2017-Nov-08 09:31N 59°51' E 024°50'1122.2
2017-Nov-08 09:01N 59°40' E 024°44'1121.5
2017-Nov-08 08:31N 59°29' E 024°46'3 5.4
2017-Nov-08 07:59N 59°27' E 024°46'0 0.0
2017-Nov-08 07:29N 59°27' E 024°46'714.6
2017-Nov-08 07:01N 59°33' E 024°42'1121.3
2017-Nov-08 06:30N 59°44' E 024°47'1123.0
2017-Nov-08 06:01N 59°55' E 024°52'1122.1
2017-Nov-08 05:31N 60°06' E 024°54'3 5.9
2017-Nov-08 05:00N 60°09' E 024°55'0 0.0
2017-Nov-08 04:30N 60°09' E 024°55'0 0.0
2017-Nov-08 04:00N 60°09' E 024°55'0 0.0
2017-Nov-08 03:30N 60°09' E 024°55'0 0.0
2017-Nov-08 03:00N 60°09' E 024°55'0 0.0
2017-Nov-08 02:30N 60°09' E 024°55'  
Track history (hours):
 
Tides and Currents Weather Stations Pressure Air Temp Water Temp Dewpoint Dewpoint Depression Visibility Wind Speed Wind Dir Waves Ship Positions

Star

Last reported at 2017-Nov-18 02:29 UTC. Time now 2017-Nov-18 02:56 UTC.
Position N 60°09' E 024°55'.

Length 186 m; draft 6 m.

Type: Passenger vessel. MMSI: 276672000.

Date/timePositionNaut miles runAvg speedWind from/ knotsBaromVisibWave heightAir tempDewpointWater temp
2017-Nov-18 02:29N 60°09' E 024°55'0 0.0
2017-Nov-18 01:59N 60°09' E 024°55'0 0.0
2017-Nov-18 01:29N 60°09' E 024°55'0 0.0
2017-Nov-18 00:59N 60°09' E 024°55'0 0.0
2017-Nov-18 00:29N 60°09' E 024°55'0 0.0
2017-Nov-17 23:59N 60°09' E 024°55'0 0.0
2017-Nov-17 23:29N 60°09' E 024°55'0 0.0
2017-Nov-17 22:59N 60°09' E 024°55'0 0.0
2017-Nov-17 22:30N 60°09' E 024°55'714.2
2017-Nov-17 22:01N 60°02' E 024°54'1223.9
2017-Nov-17 21:31N 59°50' E 024°48'1122.6
2017-Nov-17 21:01N 59°40' E 024°38'1122.7
2017-Nov-17 20:31N 59°29' E 024°46'3 5.6
2017-Nov-17 20:00N 59°27' E 024°46'0 0.0
2017-Nov-17 19:30N 59°27' E 024°46'918.8
2017-Nov-17 19:01N 59°36' E 024°40'1122.8
2017-Nov-17 18:31N 59°47' E 024°45'1223.5
2017-Nov-17 18:00N 59°58' E 024°53'1121.2
2017-Nov-17 17:30N 60°08' E 024°54'1 1.5
2017-Nov-17 17:00N 60°09' E 024°55'0 0.0
2017-Nov-17 16:30N 60°09' E 024°55'816.4
2017-Nov-17 16:00N 60°01' E 024°54'1123.0
2017-Nov-17 15:31N 59°50' E 024°47'1122.3
2017-Nov-17 15:01N 59°39' E 024°39'1122.7
2017-Nov-17 14:31N 59°29' E 024°46'2 3.7
2017-Nov-17 13:58N 59°27' E 024°46'0 0.0
2017-Nov-17 13:31N 59°27' E 024°46'815.6
2017-Nov-17 13:01N 59°34' E 024°41'1122.5
2017-Nov-17 12:31N 59°45' E 024°44'1223.0
2017-Nov-17 12:01N 59°56' E 024°53'1122.2
2017-Nov-17 11:30N 60°07' E 024°54'2 3.7
2017-Nov-17 10:59N 60°09' E 024°55'0 0.0
2017-Nov-17 10:30N 60°09' E 024°55'713.4
2017-Nov-17 10:01N 60°02' E 024°54'1122.5
2017-Nov-17 09:31N 59°51' E 024°50'1223.2
2017-Nov-17 09:01N 59°40' E 024°44'1121.7
2017-Nov-17 08:31N 59°29' E 024°46'3 4.6
2017-Nov-17 07:58N 59°27' E 024°46'0 0.0
2017-Nov-17 07:30N 59°27' E 024°46'815.5
2017-Nov-17 07:00N 59°34' E 024°42'1121.9
2017-Nov-17 06:30N 59°45' E 024°47'1223.1
2017-Nov-17 06:01N 59°56' E 024°53'1122.0
2017-Nov-17 05:30N 60°07' E 024°54'2 4.1
2017-Nov-17 05:00N 60°09' E 024°55'0 0.0
2017-Nov-17 04:30N 60°09' E 024°55'0 0.0
2017-Nov-17 04:00N 60°09' E 024°55'0 0.0
2017-Nov-17 03:30N 60°09' E 024°55'0 0.0
2017-Nov-17 03:00N 60°09' E 024°55'0 0.0
2017-Nov-17 02:30N 60°09' E 024°55'0 0.0
2017-Nov-17 02:00N 60°09' E 024°55'0 0.0
2017-Nov-17 01:30N 60°09' E 024°55'0 0.0
2017-Nov-17 00:57N 60°09' E 024°55'0 0.0
2017-Nov-17 00:30N 60°09' E 024°55'0 0.0
2017-Nov-17 00:00N 60°09' E 024°55'0 0.0
2017-Nov-16 23:30N 60°09' E 024°55'0 0.0
2017-Nov-16 23:00N 60°09' E 024°55'0 0.0
2017-Nov-16 22:30N 60°09' E 024°55'613.0
2017-Nov-16 22:00N 60°02' E 024°54'1223.3
2017-Nov-16 21:31N 59°51' E 024°51'1223.4
2017-Nov-16 21:01N 59°40' E 024°44'1121.8
2017-Nov-16 20:30N 59°29' E 024°46'2 4.1
2017-Nov-16 19:58N 59°27' E 024°46'0 0.0
2017-Nov-16 19:31N 59°27' E 024°46'714.9
2017-Nov-16 19:01N 59°34' E 024°42'1121.8
2017-Nov-16 18:31N 59°44' E 024°47'1122.9
2017-Nov-16 18:00N 59°55' E 024°52'1122.0
2017-Nov-16 17:30N 60°06' E 024°54'2 5.0
2017-Nov-16 17:00N 60°09' E 024°55'0 0.0
2017-Nov-16 16:30N 60°09' E 024°55'713.5
2017-Nov-16 16:00N 60°02' E 024°54'1123.0
2017-Nov-16 15:31N 59°51' E 024°50'1223.2
2017-Nov-16 15:01N 59°40' E 024°44'1121.4
2017-Nov-16 14:31N 59°29' E 024°46'2 4.8
2017-Nov-16 14:00N 59°27' E 024°46'0 0.0
2017-Nov-16 13:30N 59°27' E 024°46'713.5
2017-Nov-16 13:01N 59°33' E 024°42'1223.2
2017-Nov-16 12:31N 59°45' E 024°43'1223.5
2017-Nov-16 12:01N 59°55' E 024°52'1121.9
2017-Nov-16 11:30N 60°06' E 024°54'3 4.9
2017-Nov-16 10:59N 60°09' E 024°55'0 0.0
2017-Nov-16 10:30N 60°09' E 024°55'714.4
2017-Nov-16 10:01N 60°02' E 024°54'1223.2
2017-Nov-16 09:31N 59°51' E 024°48'1223.3
2017-Nov-16 09:00N 59°39' E 024°41'1122.5
2017-Nov-16 08:30N 59°28' E 024°46'2 3.5
2017-Nov-16 08:00N 59°27' E 024°46'0 0.0
2017-Nov-16 07:30N 59°27' E 024°46'713.9
2017-Nov-16 07:01N 59°33' E 024°42'1122.7
2017-Nov-16 06:30N 59°45' E 024°43'1223.2
2017-Nov-16 06:01N 59°55' E 024°52'1122.2
2017-Nov-16 05:31N 60°06' E 024°54'3 4.9
2017-Nov-16 04:59N 60°09' E 024°55'0 0.0
2017-Nov-16 04:29N 60°09' E 024°55'0 0.0
2017-Nov-16 03:59N 60°09' E 024°55'0 0.0
2017-Nov-16 03:29N 60°09' E 024°55'0 0.0
2017-Nov-16 02:56N 60°09' E 024°55'0 0.0
2017-Nov-16 02:29N 60°09' E 024°55'0 0.0
2017-Nov-16 01:56N 60°09' E 024°55'0 0.0
2017-Nov-16 01:29N 60°09' E 024°55'0 0.0
2017-Nov-16 00:59N 60°09' E 024°55'0 0.0
2017-Nov-16 00:29N 60°09' E 024°55'0 0.0
2017-Nov-15 23:59N 60°09' E 024°55'0 0.0
2017-Nov-15 23:29N 60°09' E 024°55'0 0.0
2017-Nov-15 22:59N 60°09' E 024°55'0 0.0
2017-Nov-15 22:30N 60°09' E 024°55'714.2
2017-Nov-15 22:00N 60°02' E 024°54'1223.3
2017-Nov-15 21:31N 59°50' E 024°50'1223.5
2017-Nov-15 21:00N 59°39' E 024°43'1121.8
2017-Nov-15 20:30N 59°28' E 024°46'2 3.3
2017-Nov-15 19:59N 59°27' E 024°46'0 0.0
2017-Nov-15 19:31N 59°27' E 024°46'815.9
2017-Nov-15 19:00N 59°34' E 024°41'1122.2
2017-Nov-15 18:30N 59°45' E 024°44'1122.6
2017-Nov-15 18:00N 59°56' E 024°52'1121.2
2017-Nov-15 17:30N 60°06' E 024°54'3 4.8
2017-Nov-15 16:58N 60°09' E 024°55'0 0.0
2017-Nov-15 16:30N 60°09' E 024°55'713.8
2017-Nov-15 16:00N 60°02' E 024°54'1223.3
2017-Nov-15 15:31N 59°51' E 024°51'1223.3
2017-Nov-15 15:01N 59°39' E 024°44'1122.1
2017-Nov-15 14:30N 59°29' E 024°46'2 3.7
2017-Nov-15 14:01N 59°27' E 024°46'0 0.0
2017-Nov-15 13:31N 59°27' E 024°46'713.8
2017-Nov-15 13:01N 59°33' E 024°42'1122.6
2017-Nov-15 12:31N 59°45' E 024°43'1223.2
2017-Nov-15 12:01N 59°55' E 024°52'1122.3
2017-Nov-15 11:30N 60°06' E 024°54'3 4.3
2017-Nov-15 10:55N 60°09' E 024°55'0 0.0
2017-Nov-15 10:30N 60°09' E 024°55'713.7
2017-Nov-15 10:01N 60°02' E 024°54'1223.2
2017-Nov-15 09:31N 59°51' E 024°51'1223.4
2017-Nov-15 09:01N 59°39' E 024°43'1122.0
2017-Nov-15 08:30N 59°29' E 024°46'2 3.7
2017-Nov-15 08:01N 59°27' E 024°46'0 0.0
2017-Nov-15 07:30N 59°27' E 024°46'713.8
2017-Nov-15 07:01N 59°33' E 024°42'1122.9
2017-Nov-15 06:30N 59°45' E 024°43'1223.3
2017-Nov-15 06:01N 59°55' E 024°52'1122.0
2017-Nov-15 05:30N 60°06' E 024°54'3 5.0
2017-Nov-15 05:00N 60°09' E 024°55'0 0.0
2017-Nov-15 04:30N 60°09' E 024°55'0 0.0
2017-Nov-15 04:00N 60°09' E 024°55'0 0.0
2017-Nov-15 03:30N 60°09' E 024°55'0 0.0
2017-Nov-15 03:00N 60°09' E 024°55'0 0.0
2017-Nov-15 02:30N 60°09' E 024°55'0 0.0
2017-Nov-15 02:00N 60°09' E 024°55'0 0.0
2017-Nov-15 01:30N 60°09' E 024°55'0 0.0
2017-Nov-15 01:00N 60°09' E 024°55'0 0.0
2017-Nov-15 00:30N 60°09' E 024°55'0 0.0
2017-Nov-15 00:00N 60°09' E 024°55'0 0.0
2017-Nov-14 23:30N 60°09' E 024°55'612.5
2017-Nov-14 23:00N 60°03' E 024°54'1123.0
2017-Nov-14 22:31N 59°51' E 024°51'1223.2
2017-Nov-14 22:00N 59°40' E 024°44'1121.8
2017-Nov-14 21:31N 59°29' E 024°46'3 5.3
2017-Nov-14 21:00N 59°27' E 024°46'0 0.0
2017-Nov-14 20:30N 59°27' E 024°46'0 0.0
2017-Nov-14 20:00N 59°27' E 024°46'0 0.0
2017-Nov-14 19:31N 59°27' E 024°46'713.7
2017-Nov-14 19:01N 59°33' E 024°42'1122.5
2017-Nov-14 18:31N 59°44' E 024°43'1223.1
2017-Nov-14 18:01N 59°55' E 024°52'1122.1
2017-Nov-14 17:30N 60°06' E 024°54'13 6.9
2017-Nov-14 15:38N 59°53' E 024°55'323.5
2017-Nov-14 15:31N 59°50' E 024°53'1223.5
2017-Nov-14 15:00N 59°39' E 024°44'1122.0
2017-Nov-14 14:30N 59°29' E 024°46'2 3.8
2017-Nov-14 14:00N 59°27' E 024°46'0 0.0
2017-Nov-14 13:31N 59°27' E 024°46'612.9
2017-Nov-14 13:01N 59°33' E 024°42'1122.9
2017-Nov-14 12:30N 59°44' E 024°43'9 3.1
2017-Nov-14 09:35N 59°52' E 024°51'224.3
2017-Nov-14 09:31N 59°51' E 024°51'1223.9
2017-Nov-14 09:01N 59°39' E 024°44'1122.3
2017-Nov-14 08:31N 59°28' E 024°47'2 3.3
2017-Nov-14 07:59N 59°27' E 024°46'0 0.0
2017-Nov-14 07:30N 59°27' E 024°46'714.0
2017-Nov-14 07:01N 59°33' E 024°42'1122.9
2017-Nov-14 06:31N 59°45' E 024°43'5 0.6
2017-Nov-13 21:33N 59°49' E 024°48'20 1.0
2017-Nov-13 01:59N 60°09' E 024°55'0 0.0
2017-Nov-13 01:29N 60°09' E 024°55'0 0.0
2017-Nov-13 00:59N 60°09' E 024°55'0 0.0
2017-Nov-13 00:29N 60°09' E 024°55'0 0.0
2017-Nov-12 23:59N 60°09' E 024°55'0 0.0
2017-Nov-12 23:29N 60°09' E 024°55'0 0.0
2017-Nov-12 22:59N 60°09' E 024°55'0 0.0
2017-Nov-12 22:26N 60°09' E 024°55'614.1
2017-Nov-12 22:01N 60°03' E 024°54'1530.9
2017-Nov-12 21:31N 59°47' E 024°50'1020.2
2017-Nov-12 21:01N 59°38' E 024°42'1122.2
2017-Nov-12 20:31N 59°27' E 024°47'1 1.3
2017-Nov-12 19:58N 59°27' E 024°46'0 0.0
2017-Nov-12 19:28N 59°27' E 024°46'716.0
2017-Nov-12 19:01N 59°34' E 024°42'1121.7
2017-Nov-12 18:30N 59°44' E 024°46'1223.0
2017-Nov-12 18:00N 59°55' E 024°52'1122.1
2017-Nov-12 17:30N 60°06' E 024°54'3 4.8
2017-Nov-12 16:58N 60°09' E 024°55'0 0.0
2017-Nov-12 16:31N 60°09' E 024°55'713.2
2017-Nov-12 16:00N 60°02' E 024°54'1223.3
2017-Nov-12 15:30N 59°51' E 024°51'1223.6
2017-Nov-12 15:01N 59°40' E 024°44'1122.1
2017-Nov-12 14:30N 59°29' E 024°46'2 3.8
2017-Nov-12 14:01N 59°27' E 024°46'0 0.0
2017-Nov-12 13:31N 59°27' E 024°46'815.5
2017-Nov-12 13:01N 59°34' E 024°41'1121.7
2017-Nov-12 12:31N 59°45' E 024°47'1223.1
2017-Nov-12 12:01N 59°56' E 024°52'1121.8
2017-Nov-12 11:31N 60°07' E 024°54'2 4.4
2017-Nov-12 10:59N 60°09' E 024°55'0 0.0
2017-Nov-12 10:29N 60°09' E 024°55'714.1
2017-Nov-12 10:01N 60°02' E 024°54'1223.1
2017-Nov-12 09:30N 59°51' E 024°48'1223.9
2017-Nov-12 09:01N 59°40' E 024°41'1325.3
2017-Nov-12 08:30N 59°27' E 024°46'0 0.4
2017-Nov-12 07:58N 59°27' E 024°46'0 0.0
2017-Nov-12 07:28N 59°27' E 024°46'716.1
2017-Nov-12 07:01N 59°34' E 024°42'1122.4
2017-Nov-12 06:30N 59°45' E 024°44'1223.2
2017-Nov-12 06:00N 59°56' E 024°52'1121.5
2017-Nov-12 05:30N 60°06' E 024°54'3 5.2
2017-Nov-12 05:00N 60°09' E 024°55'0 0.0
2017-Nov-12 04:30N 60°09' E 024°55'0 0.0
2017-Nov-12 04:00N 60°09' E 024°55'0 0.0
2017-Nov-12 03:30N 60°09' E 024°55'0 0.0
2017-Nov-12 03:00N 60°09' E 024°55'0 0.0
2017-Nov-12 02:30N 60°09' E 024°55'0 0.0
2017-Nov-12 02:00N 60°09' E 024°55'0 0.0
2017-Nov-12 01:30N 60°09' E 024°55'0 0.0
2017-Nov-12 01:00N 60°09' E 024°55'0 0.0
2017-Nov-12 00:30N 60°09' E 024°55'0 0.0
2017-Nov-12 00:00N 60°09' E 024°55'0 0.0
2017-Nov-11 23:30N 60°09' E 024°55'0 0.0
2017-Nov-11 23:00N 60°09' E 024°55'0 0.1
2017-Nov-11 22:29N 60°09' E 024°55'713.8
2017-Nov-11 22:00N 60°02' E 024°54'1223.4
2017-Nov-11 21:31N 59°51' E 024°51'1223.6
2017-Nov-11 21:01N 59°39' E 024°44'1122.1
2017-Nov-11 20:30N 59°28' E 024°46'2 3.6
2017-Nov-11 20:00N 59°27' E 024°46'0 0.0
2017-Nov-11 19:30N 59°27' E 024°46'816.5
2017-Nov-11 19:01N 59°34' E 024°41'1122.1
2017-Nov-11 18:30N 59°45' E 024°47'1122.6
2017-Nov-11 18:00N 59°56' E 024°52'1021.0
2017-Nov-11 17:30N 60°07' E 024°54'2 4.6
2017-Nov-11 16:59N 60°09' E 024°55'0 0.0
2017-Nov-11 16:30N 60°09' E 024°55'612.5
2017-Nov-11 16:01N 60°03' E 024°54'1223.4
2017-Nov-11 15:30N 59°51' E 024°51'1223.4
2017-Nov-11 15:01N 59°40' E 024°44'1122.3
2017-Nov-11 14:31N 59°29' E 024°46'2 4.3
2017-Nov-11 14:00N 59°27' E 024°46'0 0.0
2017-Nov-11 13:31N 59°27' E 024°46'815.3
2017-Nov-11 13:01N 59°34' E 024°42'1121.9
2017-Nov-11 12:31N 59°45' E 024°43'1222.5
2017-Nov-11 12:00N 59°56' E 024°52'1021.6
2017-Nov-11 11:30N 60°06' E 024°54'3 5.3
2017-Nov-11 10:58N 60°09' E 024°55'0 0.1
2017-Nov-11 10:29N 60°09' E 024°55'714.5
2017-Nov-11 10:01N 60°02' E 024°54'1122.7
2017-Nov-11 09:31N 59°51' E 024°49'1122.7
2017-Nov-11 09:01N 59°40' E 024°44'1121.3
2017-Nov-11 08:31N 59°29' E 024°46'3 5.2
2017-Nov-11 07:59N 59°27' E 024°46'0 0.0
2017-Nov-11 07:29N 59°27' E 024°46'816.9
2017-Nov-11 07:01N 59°34' E 024°41'1121.9
2017-Nov-11 06:31N 59°45' E 024°47'1122.8
2017-Nov-11 06:01N 59°56' E 024°52'1121.3
2017-Nov-11 05:30N 60°06' E 024°54'2 4.8
2017-Nov-11 05:00N 60°09' E 024°55'0 0.0
2017-Nov-11 04:30N 60°09' E 024°55'0 0.0
2017-Nov-11 04:00N 60°09' E 024°55'0 0.0
2017-Nov-11 03:30N 60°09' E 024°55'0 0.0
2017-Nov-11 03:00N 60°09' E 024°55'0 0.0
2017-Nov-11 02:30N 60°09' E 024°55'0 0.0
2017-Nov-11 02:00N 60°09' E 024°55'0 0.0
2017-Nov-11 01:30N 60°09' E 024°55'0 0.0
2017-Nov-11 01:00N 60°09' E 024°55'0 0.0
2017-Nov-11 00:30N 60°09' E 024°55'0 0.0
2017-Nov-11 00:00N 60°09' E 024°55'0 0.0
2017-Nov-10 23:30N 60°09' E 024°55'0 0.0
2017-Nov-10 23:00N 60°09' E 024°55'0 0.1
2017-Nov-10 22:27N 60°09' E 024°55'716.2
2017-Nov-10 22:00N 60°02' E 024°54'1122.9
2017-Nov-10 21:30N 59°50' E 024°51'1223.5
2017-Nov-10 21:01N 59°39' E 024°44'1121.2
2017-Nov-10 20:31N 59°29' E 024°46'2 4.2
2017-Nov-10 20:00N 59°27' E 024°46'0 0.0
2017-Nov-10 19:30N 59°27' E 024°46'917.2
2017-Nov-10 19:01N 59°35' E 024°41'1121.3
2017-Nov-10 18:30N 59°45' E 024°47'1122.5
2017-Nov-10 18:00N 59°56' E 024°52'1121.6
2017-Nov-10 17:31N 60°07' E 024°54'2 4.6
2017-Nov-10 17:00N 60°09' E 024°55'0 0.0
2017-Nov-10 16:30N 60°09' E 024°55'713.5
2017-Nov-10 16:00N 60°02' E 024°54'1122.9
2017-Nov-10 15:31N 59°51' E 024°51'1223.0
2017-Nov-10 15:00N 59°40' E 024°44'1121.6
2017-Nov-10 14:31N 59°29' E 024°46'3 5.0
2017-Nov-10 14:00N 59°27' E 024°46'0 0.0
2017-Nov-10 13:30N 59°27' E 024°46'815.5
2017-Nov-10 13:01N 59°34' E 024°42'1121.4
2017-Nov-10 12:30N 59°44' E 024°48'1122.6
2017-Nov-10 12:00N 59°55' E 024°53'1122.0
2017-Nov-10 11:30N 60°06' E 024°54'3 4.7
2017-Nov-10 10:56N 60°09' E 024°55'0 0.0
2017-Nov-10 10:29N 60°09' E 024°55'714.0
2017-Nov-10 10:01N 60°02' E 024°54'1122.6
2017-Nov-10 09:31N 59°51' E 024°50'1122.6
2017-Nov-10 09:01N 59°40' E 024°44'1121.3
2017-Nov-10 08:31N 59°30' E 024°46'3 5.3
2017-Nov-10 07:58N 59°27' E 024°46'0 0.0
2017-Nov-10 07:30N 59°27' E 024°46'815.7
2017-Nov-10 07:01N 59°34' E 024°41'1121.1
2017-Nov-10 06:31N 59°44' E 024°47'1122.0
2017-Nov-10 06:00N 59°55' E 024°52'1121.9
2017-Nov-10 05:31N 60°06' E 024°54'3 5.9
2017-Nov-10 04:59N 60°09' E 024°55'0 0.0
2017-Nov-10 04:29N 60°09' E 024°55'0 0.0
2017-Nov-10 03:59N 60°09' E 024°55'0 0.0
2017-Nov-10 03:29N 60°09' E 024°55'0 0.0
2017-Nov-10 02:56N 60°09' E 024°55'0 0.0
2017-Nov-10 02:29N 60°09' E 024°55'0 0.0
2017-Nov-10 01:59N 60°09' E 024°55'0 0.0
2017-Nov-10 01:29N 60°09' E 024°55'0 0.0
2017-Nov-10 00:59N 60°09' E 024°55'0 0.0
2017-Nov-10 00:29N 60°09' E 024°55'0 0.0
2017-Nov-09 23:59N 60°09' E 024°55'0 0.0
2017-Nov-09 23:29N 60°09' E 024°55'0 0.0
2017-Nov-09 22:59N 60°09' E 024°55'0 0.0
2017-Nov-09 22:29N 60°09' E 024°55'714.1
2017-Nov-09 22:01N 60°02' E 024°54'1122.3
2017-Nov-09 21:30N 59°51' E 024°51'1122.5
2017-Nov-09 21:00N 59°40' E 024°45'1122.6
2017-Nov-09 20:31N 59°29' E 024°46'2 4.7
2017-Nov-09 20:00N 59°27' E 024°46'0 0.0
2017-Nov-09 19:31N 59°27' E 024°46'815.2
2017-Nov-09 19:00N 59°34' E 024°42'1121.9
2017-Nov-09 18:30N 59°45' E 024°47'1122.7
2017-Nov-09 18:00N 59°56' E 024°52'1122.2
2017-Nov-09 17:31N 60°07' E 024°54'2 4.3
2017-Nov-09 16:58N 60°09' E 024°55'0 0.0
2017-Nov-09 16:31N 60°09' E 024°55'713.4
2017-Nov-09 16:00N 60°02' E 024°54'1122.5
2017-Nov-09 15:30N 59°51' E 024°51'1122.6
2017-Nov-09 15:01N 59°40' E 024°44'1121.5
2017-Nov-09 14:31N 59°30' E 024°46'3 5.7
2017-Nov-09 14:01N 59°27' E 024°46'0 0.0
2017-Nov-09 13:30N 59°27' E 024°46'815.5
2017-Nov-09 13:01N 59°34' E 024°41'1121.3
2017-Nov-09 12:31N 59°44' E 024°48'1122.6
2017-Nov-09 12:00N 59°55' E 024°53'1121.8
2017-Nov-09 11:31N 60°06' E 024°54'3 5.6
2017-Nov-09 11:00N 60°09' E 024°55'0 0.0
2017-Nov-09 10:30N 60°09' E 024°55'714.4
2017-Nov-09 10:00N 60°02' E 024°54'1122.9
2017-Nov-09 09:30N 59°51' E 024°51'1122.9
2017-Nov-09 09:00N 59°40' E 024°44'1121.8
2017-Nov-09 08:30N 59°29' E 024°46'2 4.1
2017-Nov-09 07:58N 59°27' E 024°46'0 0.0
2017-Nov-09 07:28N 59°27' E 024°46'816.5
2017-Nov-09 07:01N 59°34' E 024°42'1121.4
2017-Nov-09 06:31N 59°44' E 024°47'1122.6
2017-Nov-09 06:01N 59°55' E 024°52'1121.6
2017-Nov-09 05:31N 60°06' E 024°54'3 5.0
2017-Nov-09 04:57N 60°09' E 024°55'0 0.0
2017-Nov-09 04:30N 60°09' E 024°55'0 0.0
2017-Nov-09 04:00N 60°09' E 024°55'0 0.0
2017-Nov-09 03:30N 60°09' E 024°55'0 0.0
2017-Nov-09 03:00N 60°09' E 024°55'0 0.0
2017-Nov-09 02:30N 60°09' E 024°55'0 0.0
2017-Nov-09 02:00N 60°09' E 024°55'0 0.0
2017-Nov-09 01:30N 60°09' E 024°55'0 0.0
2017-Nov-09 01:00N 60°09' E 024°55'0 0.0
2017-Nov-09 00:30N 60°09' E 024°55'0 0.0
2017-Nov-08 23:59N 60°09' E 024°55'0 0.0
2017-Nov-08 23:29N 60°09' E 024°55'0 0.0
2017-Nov-08 23:00N 60°09' E 024°55'0 0.0
2017-Nov-08 22:30N 60°09' E 024°55'816.5
2017-Nov-08 22:00N 60°01' E 024°54'1224.0
2017-Nov-08 21:30N 59°49' E 024°50'1325.8
2017-Nov-08 21:00N 59°37' E 024°41'1020.5
2017-Nov-08 20:31N 59°27' E 024°47'0 0.5
2017-Nov-08 19:58N 59°27' E 024°46'0 0.0
2017-Nov-08 19:28N 59°27' E 024°46'816.5
2017-Nov-08 19:01N 59°34' E 024°42'1121.3
2017-Nov-08 18:31N 59°44' E 024°47'1122.6
2017-Nov-08 18:01N 59°55' E 024°52'1122.0
2017-Nov-08 17:31N 60°06' E 024°54'3 5.5
2017-Nov-08 17:00N 60°09' E 024°55'0 0.0
2017-Nov-08 16:30N 60°09' E 024°55'714.4
2017-Nov-08 16:00N 60°02' E 024°54'1122.6
2017-Nov-08 15:30N 59°51' E 024°50'1122.6
2017-Nov-08 15:00N 59°40' E 024°44'1121.4
2017-Nov-08 14:30N 59°29' E 024°46'2 4.9
2017-Nov-08 14:00N 59°27' E 024°46'0 0.0
2017-Nov-08 13:30N 59°27' E 024°46'714.0
2017-Nov-08 13:00N 59°33' E 024°42'1121.4
2017-Nov-08 12:30N 59°44' E 024°47'1122.8
2017-Nov-08 12:00N 59°55' E 024°52'1122.2
2017-Nov-08 11:31N 60°06' E 024°54'3 6.0
2017-Nov-08 11:00N 60°09' E 024°55'0 0.0
2017-Nov-08 10:29N 60°09' E 024°55'714.4
2017-Nov-08 10:00N 60°02' E 024°54'1122.6
2017-Nov-08 09:31N 59°51' E 024°50'1122.2
2017-Nov-08 09:01N 59°40' E 024°44'1121.5
2017-Nov-08 08:31N 59°29' E 024°46'3 5.4
2017-Nov-08 07:59N 59°27' E 024°46'0 0.0
2017-Nov-08 07:29N 59°27' E 024°46'714.6
2017-Nov-08 07:01N 59°33' E 024°42'1121.3
2017-Nov-08 06:30N 59°44' E 024°47'1123.0
2017-Nov-08 06:01N 59°55' E 024°52'1122.1
2017-Nov-08 05:31N 60°06' E 024°54'3 5.9
2017-Nov-08 05:00N 60°09' E 024°55'0 0.0
2017-Nov-08 04:30N 60°09' E 024°55'0 0.0
2017-Nov-08 04:00N 60°09' E 024°55'0 0.0
2017-Nov-08 03:30N 60°09' E 024°55'0 0.0
2017-Nov-08 03:00N 60°09' E 024°55'0 0.0
2017-Nov-08 02:30N 60°09' E 024°55'  

Dump ship's entire track history